createdAt,value
2023-01-07T07:01:06.411Z,-8.62
2023-01-07T07:06:09.752Z,-8.63
2023-01-07T07:11:13.055Z,-8.57
2023-01-07T07:16:22.434Z,-8.55
2023-01-07T07:21:25.751Z,-8.56
2023-01-07T07:26:29.011Z,-8.58
2023-01-07T07:31:34.274Z,-8.63
2023-01-07T07:36:37.690Z,-8.56
2023-01-07T07:41:41.012Z,-8.59
2023-01-07T07:46:47.664Z,-8.50
2023-01-07T07:51:50.961Z,-8.52
2023-01-07T07:56:54.223Z,-8.50
2023-01-07T08:01:58.962Z,-8.51
2023-01-07T08:07:04.634Z,-8.45
2023-01-07T08:12:07.930Z,-8.47
2023-01-07T08:17:12.613Z,-8.45
2023-01-07T08:22:15.884Z,-8.39
2023-01-07T08:27:19.187Z,-8.30
2023-01-07T08:32:24.002Z,-8.20
2023-01-07T08:37:27.256Z,-8.16
2023-01-07T08:42:30.866Z,-7.95
2023-01-07T08:47:38.424Z,-7.89
2023-01-07T08:52:41.961Z,-7.73
2023-01-07T08:57:45.259Z,-7.55
2023-01-07T09:02:49.957Z,-7.45
2023-01-07T09:07:54.251Z,-7.36
2023-01-07T09:12:57.602Z,-7.36
2023-01-07T09:18:03.498Z,-7.31
2023-01-07T09:23:06.867Z,-7.26
2023-01-07T09:28:10.165Z,-7.16
2023-01-07T09:33:14.821Z,-7.10
2023-01-07T09:38:18.138Z,-6.99
2023-01-07T09:44:00.306Z,-6.89
2023-01-07T09:48:56.396Z,-6.83
2023-01-07T09:54:04.128Z,-6.79
2023-01-07T09:59:08.452Z,-6.73
2023-01-07T10:04:26.351Z,-6.62
2023-01-07T10:09:35.180Z,-6.44
2023-01-07T10:14:52.524Z,-6.26
2023-01-07T10:20:01.204Z,-6.21
2023-01-07T10:25:06.384Z,-6.12
2023-01-07T10:30:14.474Z,-6.11
2023-01-07T10:35:21.348Z,-6.25
2023-01-07T10:40:29.198Z,-6.18
2023-01-07T10:45:41.750Z,-6.03
2023-01-07T10:50:51.659Z,-5.82
2023-01-07T10:56:00.115Z,-5.91
2023-01-07T11:01:06.089Z,-5.87
2023-01-07T11:06:13.119Z,-5.83
2023-01-07T11:11:17.495Z,-5.59
2023-01-07T11:16:24.763Z,-5.45
2023-01-07T11:21:43.501Z,-5.09
2023-01-07T11:26:47.924Z,-4.97
2023-01-07T11:31:52.727Z,-4.91
2023-01-07T11:36:57.600Z,-5.04
2023-01-07T11:42:21.497Z,-5.09
2023-01-07T11:47:24.844Z,-5.12
2023-01-07T11:52:29.827Z,-5.11
2023-01-07T11:57:33.181Z,-4.93
2023-01-07T12:02:36.574Z,-4.93
2023-01-07T12:07:45.695Z,-5.06
2023-01-07T12:12:52.555Z,-5.21
2023-01-07T12:18:02.700Z,-5.28
2023-01-07T12:23:16.813Z,-5.23
2023-01-07T12:28:24.351Z,-5.05
2023-01-07T12:33:35.465Z,-5.07
2023-01-07T12:38:43.779Z,-5.02
2023-01-07T12:43:56.484Z,-5.00
2023-01-07T12:49:05.474Z,-5.02
2023-01-07T12:54:16.745Z,-5.04
2023-01-07T12:59:46.937Z,-4.97
2023-01-07T13:04:53.447Z,-4.90
2023-01-07T13:10:01.567Z,-4.87
2023-01-07T13:15:09.752Z,-5.01
2023-01-07T13:20:14.079Z,-5.01
2023-01-07T13:25:27.744Z,-5.17
2023-01-07T13:30:40.121Z,-5.19
2023-01-07T13:36:01.949Z,-5.29
2023-01-07T13:41:14.793Z,-5.31
2023-01-07T13:46:19.603Z,-5.46
2023-01-07T13:51:27.489Z,-5.54
2023-01-07T13:56:36.645Z,-5.61
2023-01-07T14:02:06.662Z,-5.78
2023-01-07T14:07:10.026Z,-5.88
2023-01-07T14:12:34.871Z,-6.00
2023-01-07T14:17:45.597Z,-6.09
2023-01-07T14:22:58.295Z,-6.15
2023-01-07T14:28:13.904Z,-6.28
2023-01-07T14:33:21.459Z,-6.41
2023-01-07T14:38:44.000Z,-6.63
2023-01-07T14:43:48.679Z,-6.81
2023-01-07T14:49:11.397Z,-6.85
2023-01-07T14:54:29.201Z,-6.96
2023-01-07T14:59:51.736Z,-7.07
2023-01-07T15:05:10.351Z,-7.21
2023-01-07T15:10:36.870Z,-7.36
2023-01-07T15:15:59.254Z,-7.53
2023-01-07T15:21:08.842Z,-7.61
2023-01-07T15:26:19.620Z,-7.76
2023-01-07T15:31:31.827Z,-7.85
2023-01-07T15:36:39.597Z,-7.88
2023-01-07T15:41:44.269Z,-8.07
2023-01-07T15:46:49.685Z,-8.08
2023-01-07T15:51:56.987Z,-8.02
2023-01-07T15:57:07.873Z,-7.96
2023-01-07T16:02:19.578Z,-7.90
2023-01-07T16:07:27.898Z,-7.85
2023-01-07T16:12:34.261Z,-7.76
2023-01-07T16:17:37.607Z,-7.78
2023-01-07T16:22:41.520Z,-7.74
2023-01-07T16:27:49.689Z,-7.67
2023-01-07T16:32:54.711Z,-7.58
2023-01-07T16:37:58.245Z,-7.51
2023-01-07T16:43:03.222Z,-7.43
2023-01-07T16:48:18.592Z,-7.35
2023-01-07T16:53:24.965Z,-7.24
2023-01-07T16:58:38.013Z,-7.19
2023-01-07T17:03:47.863Z,-7.08
2023-01-07T17:08:53.699Z,-7.02
2023-01-07T17:13:58.424Z,-6.94
2023-01-07T17:19:16.598Z,-6.81
2023-01-07T17:24:46.109Z,-6.75
2023-01-07T17:29:50.915Z,-6.75
2023-01-07T17:34:54.235Z,-6.63
2023-01-07T17:39:57.532Z,-6.67
2023-01-07T17:45:02.161Z,-6.67
2023-01-07T17:50:06.432Z,-6.68
2023-01-07T17:55:13.685Z,-6.68
2023-01-07T18:00:20.570Z,-6.69
2023-01-07T18:05:24.963Z,-6.64
2023-01-07T18:10:50.034Z,-6.64
2023-01-07T18:16:19.236Z,-6.63
2023-01-07T18:21:24.121Z,-6.63
2023-01-07T18:26:27.437Z,-6.62
2023-01-07T18:31:31.133Z,-6.66
2023-01-07T18:36:38.844Z,-6.71
2023-01-07T18:41:42.156Z,-6.76
2023-01-07T18:46:45.468Z,-6.76
2023-01-07T18:51:52.558Z,-6.77
2023-01-07T18:56:56.046Z,-6.64
2023-01-07T19:02:02.439Z,-6.84
2023-01-07T19:07:07.307Z,-6.79
2023-01-07T19:12:12.622Z,-6.98
2023-01-07T19:17:16.362Z,-7.24
2023-01-07T19:22:35.343Z,-7.20
2023-01-07T19:27:40.403Z,-7.17
2023-01-07T19:32:43.994Z,-7.09
2023-01-07T19:37:47.551Z,-7.08
2023-01-07T19:42:52.374Z,-7.05
2023-01-07T19:47:55.866Z,-7.10
2023-01-07T19:52:59.950Z,-7.12
2023-01-07T19:58:04.975Z,-7.01
2023-01-07T20:03:09.411Z,-7.06
2023-01-07T20:08:14.159Z,-7.09
2023-01-07T20:13:19.668Z,-6.98
2023-01-07T20:18:25.473Z,-6.86
2023-01-07T20:23:29.213Z,-6.76
2023-01-07T20:28:35.558Z,-6.74
2023-01-07T20:33:40.733Z,-6.81
2023-01-07T20:44:13.994Z,-6.84
2023-01-07T20:49:18.589Z,-6.74
2023-01-07T20:54:22.452Z,-7.02
2023-01-07T20:59:28.125Z,-7.01
2023-01-07T21:04:31.915Z,-7.15
2023-01-07T21:09:45.601Z,-7.23
2023-01-07T21:14:52.946Z,-7.27
2023-01-07T21:19:56.442Z,-7.26
2023-01-07T21:24:59.958Z,-7.25
2023-01-07T21:30:06.360Z,-7.36
2023-01-07T21:35:10.278Z,-7.32
2023-01-07T21:40:14.792Z,-7.36
2023-01-07T21:45:19.644Z,-7.29
2023-01-07T21:50:23.087Z,-7.37
2023-01-07T21:55:26.619Z,-7.24
2023-01-07T22:00:31.455Z,-7.32
2023-01-07T22:05:34.917Z,-7.46
2023-01-07T22:10:38.422Z,-7.40
2023-01-07T22:15:43.379Z,-7.45
2023-01-07T22:20:53.034Z,-7.51
2023-01-07T22:25:56.436Z,-7.47
2023-01-07T22:31:07.081Z,-7.58
2023-01-07T22:36:11.552Z,-7.56
2023-01-07T22:41:15.124Z,-7.51
2023-01-07T22:46:21.676Z,-7.60
